createdAt,value
2022-12-03T00:02:15.430Z,2.34
2022-12-03T00:04:41.931Z,2.33
2022-12-03T00:07:08.379Z,2.35
2022-12-03T00:09:34.836Z,2.34
2022-12-03T00:12:01.411Z,2.34
2022-12-03T00:14:27.865Z,2.31
2022-12-03T00:16:54.380Z,2.33
2022-12-03T00:19:20.821Z,2.38
2022-12-03T00:21:47.221Z,2.38
2022-12-03T00:24:13.633Z,2.36
2022-12-03T00:26:40.057Z,2.36
2022-12-03T00:29:07.066Z,2.32
2022-12-03T00:31:33.517Z,2.36
2022-12-03T00:33:59.937Z,2.34
2022-12-03T00:36:26.345Z,2.33
2022-12-03T00:38:53.739Z,2.32
2022-12-03T00:41:20.154Z,2.30
2022-12-03T00:43:46.593Z,2.31
2022-12-03T00:46:15.753Z,2.33
2022-12-03T00:48:46.208Z,2.33
2022-12-03T00:51:13.015Z,2.37
2022-12-03T00:53:39.575Z,2.38
2022-12-03T00:56:06.430Z,2.38
2022-12-03T00:58:32.882Z,2.36
2022-12-03T01:00:59.296Z,2.35
2022-12-03T01:03:25.925Z,2.35
2022-12-03T01:05:52.350Z,2.39
2022-12-03T01:08:18.783Z,2.42
2022-12-03T01:10:45.201Z,2.42
2022-12-03T01:13:11.606Z,2.42
2022-12-03T01:15:38.066Z,2.39
2022-12-03T01:18:04.511Z,2.38
2022-12-03T01:20:30.989Z,2.40
2022-12-03T01:22:58.460Z,2.42
2022-12-03T01:25:25.084Z,2.46
2022-12-03T01:27:51.513Z,2.48
2022-12-03T01:30:17.935Z,2.50
2022-12-03T01:32:44.364Z,2.54
2022-12-03T01:35:10.762Z,2.56
2022-12-03T01:37:37.336Z,2.55
2022-12-03T01:40:05.123Z,2.57
2022-12-03T01:42:35.123Z,2.61
2022-12-03T01:45:03.518Z,2.63
2022-12-03T01:47:37.815Z,2.64
2022-12-03T01:50:32.958Z,2.66
2022-12-03T01:53:02.324Z,2.67
2022-12-03T01:55:29.114Z,2.66
2022-12-03T01:58:01.028Z,2.69
2022-12-03T02:00:28.775Z,2.73
2022-12-03T02:02:59.370Z,2.75
2022-12-03T02:05:28.707Z,2.75
2022-12-03T02:07:55.872Z,2.73
2022-12-03T02:10:30.665Z,2.70
2022-12-03T02:13:00.888Z,2.68
2022-12-03T02:15:27.432Z,2.63
2022-12-03T02:17:54.812Z,2.59
2022-12-03T02:20:21.643Z,2.59
2022-12-03T02:23:03.299Z,2.59
2022-12-03T02:25:32.094Z,2.57
2022-12-03T02:28:00.091Z,2.56
2022-12-03T02:30:28.508Z,2.57
2022-12-03T02:32:56.809Z,2.59
2022-12-03T02:35:27.115Z,2.55
2022-12-03T02:38:00.432Z,2.61
2022-12-03T02:40:30.717Z,2.58
2022-12-03T02:43:01.158Z,2.56
2022-12-03T02:45:32.263Z,2.56
2022-12-03T02:48:02.573Z,2.57
2022-12-03T02:50:33.304Z,2.54
2022-12-03T02:53:05.432Z,2.53
2022-12-03T02:55:37.126Z,2.50
2022-12-03T02:58:05.227Z,2.55
2022-12-03T03:00:31.893Z,2.56
2022-12-03T03:02:58.578Z,2.55
2022-12-03T03:05:25.417Z,2.55
2022-12-03T03:07:51.966Z,2.53
2022-12-03T03:10:21.822Z,2.52
2022-12-03T03:12:48.524Z,2.54
2022-12-03T03:15:15.380Z,2.54
2022-12-03T03:17:42.899Z,2.58
2022-12-03T03:20:10.611Z,2.62
2022-12-03T03:22:40.507Z,2.62
2022-12-03T03:25:10.758Z,2.67
2022-12-03T03:27:38.243Z,2.67
2022-12-03T03:30:05.629Z,2.66
2022-12-03T03:32:32.936Z,2.66
2022-12-03T03:35:00.796Z,2.64
2022-12-03T03:37:28.257Z,2.63
2022-12-03T03:39:55.423Z,2.61
2022-12-03T03:42:22.734Z,2.62
2022-12-03T03:44:49.687Z,2.62
2022-12-03T03:47:17.061Z,2.60
2022-12-03T03:49:44.064Z,2.58
2022-12-03T03:52:11.681Z,2.56
2022-12-03T03:54:39.401Z,2.57
2022-12-03T03:57:06.105Z,2.56
2022-12-03T03:59:32.533Z,2.52
2022-12-03T04:01:58.963Z,2.53
2022-12-03T04:04:35.069Z,2.55
2022-12-03T04:07:01.545Z,2.53
2022-12-03T04:09:27.973Z,2.53
2022-12-03T04:12:12.721Z,2.48
2022-12-03T04:14:39.107Z,2.47
2022-12-03T04:17:05.515Z,2.42
2022-12-03T04:19:31.911Z,2.40
2022-12-03T04:22:16.736Z,2.37
2022-12-03T04:24:43.468Z,2.36
2022-12-03T04:27:28.719Z,2.35
2022-12-03T04:29:55.085Z,2.31
2022-12-03T04:32:40.276Z,2.31
2022-12-03T04:35:25.678Z,2.25
2022-12-03T04:37:52.125Z,2.26
2022-12-03T04:40:37.175Z,2.21
2022-12-03T04:43:03.593Z,2.14
2022-12-03T04:45:30.167Z,2.13
2022-12-03T04:47:56.642Z,2.10
2022-12-03T04:50:23.016Z,2.07
2022-12-03T04:52:49.401Z,2.06
2022-12-03T04:55:15.808Z,2.06
2022-12-03T04:57:42.331Z,2.02
2022-12-03T05:00:09.359Z,2.02
2022-12-03T05:02:35.840Z,1.98
2022-12-03T05:05:02.340Z,1.99
2022-12-03T05:07:28.802Z,1.96
2022-12-03T05:09:55.244Z,1.95
2022-12-03T05:12:21.656Z,1.94
2022-12-03T05:14:48.080Z,1.93
2022-12-03T05:17:14.510Z,1.93
2022-12-03T05:19:59.703Z,1.94
2022-12-03T05:22:26.115Z,1.94
2022-12-03T05:24:52.983Z,1.94
2022-12-03T05:27:23.865Z,1.95
2022-12-03T05:29:50.860Z,1.98
2022-12-03T05:32:17.301Z,1.96
2022-12-03T05:34:43.683Z,1.97
2022-12-03T05:37:10.089Z,1.93
2022-12-03T05:39:36.619Z,1.91
2022-12-03T05:42:21.883Z,1.87
2022-12-03T05:44:48.377Z,1.80
2022-12-03T05:47:15.043Z,1.77
2022-12-03T05:49:41.474Z,1.77
2022-12-03T05:52:07.877Z,1.77
2022-12-03T05:54:34.333Z,1.75
2022-12-03T05:57:00.757Z,1.70
2022-12-03T05:59:27.392Z,1.66
2022-12-03T06:01:53.831Z,1.63
2022-12-03T06:04:20.265Z,1.61
2022-12-03T06:06:46.695Z,1.57
2022-12-03T06:09:13.168Z,1.51
2022-12-03T06:11:40.574Z,1.52
2022-12-03T06:14:07.256Z,1.53
2022-12-03T06:16:33.737Z,1.52
2022-12-03T06:19:00.315Z,1.50
2022-12-03T06:21:27.236Z,1.47
2022-12-03T06:23:53.668Z,1.44
2022-12-03T06:26:20.088Z,1.45
2022-12-03T06:28:47.671Z,1.43
2022-12-03T06:31:14.475Z,1.39
2022-12-03T06:33:40.940Z,1.34
2022-12-03T06:36:07.623Z,1.36
2022-12-03T06:38:34.058Z,1.34
2022-12-03T06:41:00.497Z,1.34
2022-12-03T06:43:27.007Z,1.33
2022-12-03T06:45:53.396Z,1.33
2022-12-03T06:48:19.777Z,1.30
2022-12-03T06:50:46.139Z,1.31
2022-12-03T06:53:12.536Z,1.31
2022-12-03T06:55:39.260Z,1.29
2022-12-03T06:58:05.687Z,1.29
2022-12-03T07:00:32.109Z,1.28
2022-12-03T07:02:58.604Z,1.27
2022-12-03T07:05:25.037Z,1.27
2022-12-03T07:07:52.296Z,1.26
2022-12-03T07:10:19.293Z,1.32
2022-12-03T07:12:45.853Z,1.33
2022-12-03T07:15:12.325Z,1.31
2022-12-03T07:17:39.023Z,1.28
2022-12-03T07:20:06.357Z,1.27
2022-12-03T07:22:32.938Z,1.25
2022-12-03T07:24:59.359Z,1.24
2022-12-03T07:27:25.806Z,1.26
2022-12-03T07:29:52.225Z,1.26
2022-12-03T07:32:18.680Z,1.27
2022-12-03T07:34:45.120Z,1.23
2022-12-03T07:37:11.560Z,1.22
2022-12-03T07:39:40.427Z,1.18
2022-12-03T07:42:09.159Z,1.14
2022-12-03T07:44:35.714Z,1.12
2022-12-03T07:47:02.176Z,1.12
2022-12-03T07:49:28.608Z,1.14
2022-12-03T07:51:56.826Z,1.15
2022-12-03T07:54:24.393Z,1.20
2022-12-03T07:56:50.846Z,1.23
2022-12-03T07:59:17.650Z,1.25
2022-12-03T08:01:44.429Z,1.24
2022-12-03T08:04:12.817Z,1.21
2022-12-03T08:06:39.238Z,1.20
2022-12-03T08:09:05.659Z,1.17
2022-12-03T08:11:33.291Z,1.17
2022-12-03T08:13:59.841Z,1.17
2022-12-03T08:16:26.342Z,1.16
2022-12-03T08:18:54.871Z,1.17
2022-12-03T08:21:21.816Z,1.14
2022-12-03T08:23:48.314Z,1.12
2022-12-03T08:26:23.398Z,1.13
2022-12-03T08:28:51.210Z,1.12
2022-12-03T08:31:32.276Z,1.14
2022-12-03T08:34:15.402Z,1.11
2022-12-03T08:36:41.964Z,1.08
2022-12-03T08:39:29.959Z,1.07
2022-12-03T08:42:24.363Z,1.07
2022-12-03T08:44:52.511Z,1.09
2022-12-03T08:47:22.031Z,1.11
2022-12-03T08:49:58.119Z,1.12
2022-12-03T08:52:31.389Z,1.13
2022-12-03T08:54:57.938Z,1.15
2022-12-03T08:57:28.421Z,1.16
2022-12-03T08:59:59.711Z,1.15
2022-12-03T09:02:32.913Z,1.14
2022-12-03T09:05:23.385Z,1.17
2022-12-03T09:07:49.871Z,1.19
2022-12-03T09:10:16.424Z,1.25
2022-12-03T09:12:42.809Z,1.33
2022-12-03T09:15:09.608Z,1.37
2022-12-03T09:17:36.868Z,1.33
2022-12-03T09:20:04.762Z,1.35
2022-12-03T09:22:31.405Z,1.31
2022-12-03T09:24:57.780Z,1.29
2022-12-03T09:27:24.223Z,1.26
2022-12-03T09:29:51.092Z,1.28
2022-12-03T09:32:18.748Z,1.23
2022-12-03T09:34:45.576Z,1.21
2022-12-03T09:37:11.980Z,1.22
2022-12-03T09:39:38.472Z,1.18
2022-12-03T09:42:05.384Z,1.16
2022-12-03T09:44:35.648Z,1.15
2022-12-03T09:47:03.007Z,1.14
2022-12-03T09:49:32.745Z,1.12
2022-12-03T09:52:02.943Z,1.14
2022-12-03T09:54:30.896Z,1.12
2022-12-03T09:57:00.791Z,1.10
2022-12-03T09:59:31.712Z,1.12
2022-12-03T10:01:58.543Z,1.11
2022-12-03T10:04:25.121Z,1.13
2022-12-03T10:06:51.616Z,1.14
2022-12-03T10:09:24.334Z,1.20
2022-12-03T10:11:50.951Z,1.21
2022-12-03T10:14:19.529Z,1.24
2022-12-03T10:16:46.500Z,1.23
2022-12-03T10:19:22.575Z,1.21
2022-12-03T10:21:49.139Z,1.26
2022-12-03T10:24:24.144Z,1.34
2022-12-03T10:26:52.537Z,1.38
2022-12-03T10:29:18.956Z,1.44
2022-12-03T10:31:46.837Z,1.49
2022-12-03T10:34:13.339Z,1.51
2022-12-03T10:36:40.375Z,1.52
2022-12-03T10:39:16.913Z,1.48
2022-12-03T10:41:44.647Z,1.43
2022-12-03T10:44:15.805Z,1.42
2022-12-03T10:46:42.728Z,1.41
2022-12-03T10:49:14.806Z,1.42
2022-12-03T10:51:41.737Z,1.41
2022-12-03T10:54:16.692Z,1.41
2022-12-03T10:56:43.683Z,1.38
2022-12-03T10:59:17.026Z,1.35
2022-12-03T11:01:43.719Z,1.37
2022-12-03T11:04:20.021Z,1.40
2022-12-03T11:06:46.748Z,1.38
2022-12-03T11:09:22.472Z,1.36
2022-12-03T11:11:49.242Z,1.29
2022-12-03T11:14:54.481Z,1.30
2022-12-03T11:17:50.592Z,1.26
2022-12-03T11:20:22.871Z,1.24
2022-12-03T11:22:53.320Z,1.24
2022-12-03T11:25:28.871Z,1.19
2022-12-03T11:28:13.815Z,1.16
2022-12-03T11:30:49.825Z,1.14
2022-12-03T11:33:26.661Z,1.15
2022-12-03T11:36:05.286Z,1.15
2022-12-03T11:38:37.558Z,1.17
2022-12-03T11:41:19.221Z,1.16
2022-12-03T11:43:51.721Z,1.13
2022-12-03T11:46:24.525Z,1.10
2022-12-03T11:48:54.049Z,1.07
2022-12-03T11:51:22.884Z,1.04
2022-12-03T11:53:51.457Z,1.04
2022-12-03T11:56:25.762Z,1.05
2022-12-03T11:59:04.242Z,1.05
2022-12-03T12:01:38.787Z,1.03
2022-12-03T12:04:06.374Z,1.03
2022-12-03T12:06:46.420Z,1.03
2022-12-03T12:09:53.186Z,1.04
2022-12-03T12:12:39.067Z,1.01
2022-12-03T12:15:33.206Z,0.99
2022-12-03T12:18:36.935Z,0.98
2022-12-03T12:21:41.692Z,0.95
2022-12-03T12:24:40.538Z,0.92
2022-12-03T12:27:09.885Z,0.87
2022-12-03T12:29:38.211Z,0.82
2022-12-03T12:32:10.705Z,0.80
2022-12-03T12:34:41.331Z,0.78
2022-12-03T12:37:30.432Z,0.75
2022-12-03T12:39:57.397Z,0.76
2022-12-03T12:42:33.186Z,0.73
2022-12-03T12:45:16.553Z,0.79
2022-12-03T12:47:49.296Z,0.83
2022-12-03T12:50:17.968Z,0.87
2022-12-03T12:52:52.809Z,0.87
2022-12-03T12:55:20.357Z,0.87
2022-12-03T12:57:47.148Z,0.90
2022-12-03T13:00:15.728Z,0.89
2022-12-03T13:02:49.657Z,0.88
2022-12-03T13:05:16.933Z,0.88
2022-12-03T13:07:44.037Z,0.88
2022-12-03T13:10:32.958Z,0.87
2022-12-03T13:13:12.576Z,0.86
2022-12-03T13:15:45.274Z,0.86
2022-12-03T13:18:34.530Z,0.90
2022-12-03T13:21:13.602Z,0.90
2022-12-03T13:23:40.201Z,0.82
2022-12-03T13:26:34.078Z,0.85
2022-12-03T13:29:10.097Z,0.86
2022-12-03T13:31:43.395Z,0.85
2022-12-03T13:34:21.880Z,0.88
2022-12-03T13:36:55.475Z,0.89
2022-12-03T13:39:36.640Z,0.90
2022-12-03T13:42:42.092Z,0.89
2022-12-03T13:45:17.483Z,0.89
2022-12-03T13:47:47.289Z,0.89
2022-12-03T13:50:32.933Z,0.93
2022-12-03T13:53:06.729Z,0.94
2022-12-03T13:55:33.187Z,0.93
2022-12-03T13:57:59.640Z,0.93
2022-12-03T14:00:26.148Z,0.95
2022-12-03T14:02:52.617Z,0.95
2022-12-03T14:05:21.063Z,0.96
2022-12-03T14:07:47.535Z,0.98
2022-12-03T14:10:14.111Z,1.03
2022-12-03T14:12:40.514Z,1.04
2022-12-03T14:15:08.500Z,1.05
2022-12-03T14:17:35.004Z,1.06
2022-12-03T14:20:01.927Z,1.04
2022-12-03T14:22:28.646Z,1.03
2022-12-03T14:24:55.153Z,1.02
2022-12-03T14:27:24.800Z,0.95
2022-12-03T14:29:52.229Z,1.01
2022-12-03T14:32:19.168Z,1.05
2022-12-03T14:34:45.641Z,1.06
2022-12-03T14:37:12.135Z,1.02
2022-12-03T14:39:38.583Z,0.98
2022-12-03T14:42:14.017Z,0.93
2022-12-03T14:44:44.923Z,0.91
2022-12-03T14:47:12.387Z,0.89
2022-12-03T14:49:39.153Z,0.76
2022-12-03T14:52:08.620Z,0.84
2022-12-03T14:54:39.168Z,0.84
2022-12-03T14:57:05.617Z,0.81
2022-12-03T14:59:31.995Z,0.81
2022-12-03T15:01:58.546Z,0.80
2022-12-03T15:04:25.224Z,0.78
2022-12-03T15:06:51.657Z,0.80
2022-12-03T15:09:18.099Z,0.75
2022-12-03T15:11:46.420Z,0.76
2022-12-03T15:14:13.304Z,0.75
2022-12-03T15:16:39.784Z,0.69
2022-12-03T15:19:06.258Z,0.75
2022-12-03T15:21:34.792Z,0.78
2022-12-03T15:24:02.074Z,0.75
2022-12-03T15:26:28.947Z,0.76
2022-12-03T15:28:55.398Z,0.72
2022-12-03T15:31:21.858Z,0.68
2022-12-03T15:33:48.537Z,0.66
2022-12-03T15:36:15.055Z,0.65
2022-12-03T15:38:41.484Z,0.66
2022-12-03T15:41:28.615Z,0.65
2022-12-03T15:43:59.266Z,0.66
2022-12-03T15:46:27.835Z,0.65
2022-12-03T15:48:55.219Z,0.66
2022-12-03T15:51:21.663Z,0.68
2022-12-03T15:53:48.084Z,0.66
2022-12-03T15:56:14.680Z,0.64
2022-12-03T15:58:41.664Z,0.64
2022-12-03T16:01:08.849Z,0.60
2022-12-03T16:03:35.910Z,0.59
2022-12-03T16:06:02.527Z,0.58
2022-12-03T16:08:29.025Z,0.61
2022-12-03T16:10:55.474Z,0.60
2022-12-03T16:13:21.944Z,0.60
2022-12-03T16:15:48.498Z,0.62
2022-12-03T16:18:15.033Z,0.62
2022-12-03T16:20:41.482Z,0.63
2022-12-03T16:23:08.181Z,0.64
2022-12-03T16:25:34.668Z,0.65
2022-12-03T16:28:01.073Z,0.67
2022-12-03T16:30:27.510Z,0.66
2022-12-03T16:32:53.982Z,0.66
2022-12-03T16:35:20.435Z,0.66
2022-12-03T16:37:46.938Z,0.66
2022-12-03T16:40:13.455Z,0.68
2022-12-03T16:42:39.919Z,0.70
2022-12-03T16:45:09.881Z,0.71
2022-12-03T16:47:36.614Z,0.72
2022-12-03T16:50:07.963Z,0.75
2022-12-03T16:52:34.773Z,0.77
2022-12-03T16:55:01.517Z,0.71
2022-12-03T16:57:33.436Z,0.71
2022-12-03T17:00:01.029Z,0.69
2022-12-03T17:02:27.849Z,0.69
2022-12-03T17:04:54.573Z,0.71
2022-12-03T17:07:20.994Z,0.66
2022-12-03T17:09:47.408Z,0.70
2022-12-03T17:12:13.891Z,0.68
2022-12-03T17:14:40.350Z,0.66
2022-12-03T17:17:06.752Z,0.63
2022-12-03T17:19:33.190Z,0.61
2022-12-03T17:21:59.813Z,0.60
2022-12-03T17:24:26.260Z,0.60
2022-12-03T17:26:52.764Z,0.55
2022-12-03T17:29:19.201Z,0.52
2022-12-03T17:31:45.739Z,0.53
2022-12-03T17:34:12.175Z,0.52
2022-12-03T17:36:38.591Z,0.52
2022-12-03T17:39:05.013Z,0.53
2022-12-03T17:41:31.420Z,0.53
2022-12-03T17:43:57.820Z,0.52
2022-12-03T17:46:24.250Z,0.52
2022-12-03T17:48:50.694Z,0.49
2022-12-03T17:51:19.154Z,0.52
2022-12-03T17:53:45.617Z,0.52
2022-12-03T17:56:12.131Z,0.53
2022-12-03T17:58:39.214Z,0.52
2022-12-03T18:01:07.745Z,0.51
2022-12-03T18:03:34.215Z,0.60
2022-12-03T18:06:00.636Z,0.62
2022-12-03T18:08:27.087Z,0.62
2022-12-03T18:10:53.592Z,0.63
2022-12-03T18:13:20.249Z,0.63
2022-12-03T18:15:46.709Z,0.62
2022-12-03T18:18:13.324Z,0.62
2022-12-03T18:20:39.776Z,0.62
2022-12-03T18:23:06.266Z,0.64
2022-12-03T18:25:32.764Z,0.72
2022-12-03T18:27:59.182Z,0.70
2022-12-03T18:30:25.664Z,0.63
2022-12-03T18:32:52.173Z,0.59
2022-12-03T18:35:18.715Z,0.55
2022-12-03T18:37:45.467Z,0.55
2022-12-03T18:40:23.685Z,0.56
2022-12-03T18:42:50.359Z,0.55
2022-12-03T18:45:16.974Z,0.52
2022-12-03T18:47:43.934Z,0.54
2022-12-03T18:50:11.632Z,0.56
2022-12-03T18:52:38.406Z,0.56
2022-12-03T18:55:05.404Z,0.56
2022-12-03T18:57:31.796Z,0.58
2022-12-03T18:59:58.624Z,0.59
2022-12-03T19:02:54.302Z,0.58
2022-12-03T19:05:11.706Z,0.54
2022-12-03T19:07:38.267Z,0.50
2022-12-03T19:10:05.267Z,0.49
2022-12-03T19:12:32.534Z,0.47
2022-12-03T19:14:58.946Z,0.46
2022-12-03T19:17:26.987Z,0.43
2022-12-03T19:19:53.618Z,0.43
2022-12-03T19:22:20.348Z,0.42
2022-12-03T19:24:46.789Z,0.40
2022-12-03T19:27:13.220Z,0.42
2022-12-03T19:29:39.845Z,0.44
2022-12-03T19:32:06.374Z,0.45
2022-12-03T19:34:33.178Z,0.41
2022-12-03T19:36:59.574Z,0.45
2022-12-03T19:39:26.236Z,0.46
2022-12-03T19:41:52.619Z,0.45
2022-12-03T19:44:19.140Z,0.48
2022-12-03T19:46:45.679Z,0.49
2022-12-03T19:49:12.096Z,0.50
2022-12-03T19:51:38.574Z,0.49
2022-12-03T19:54:06.551Z,0.51
2022-12-03T19:56:33.376Z,0.51
2022-12-03T19:58:59.832Z,0.51
2022-12-03T20:01:28.976Z,0.48
2022-12-03T20:03:57.527Z,0.48
2022-12-03T20:06:26.622Z,0.49
2022-12-03T20:08:58.874Z,0.47
2022-12-03T20:11:27.863Z,0.46
2022-12-03T20:14:04.102Z,0.54
2022-12-03T20:16:30.572Z,0.55
2022-12-03T20:18:59.960Z,0.56
2022-12-03T20:21:28.477Z,0.54
2022-12-03T20:23:54.901Z,0.55
2022-12-03T20:26:22.267Z,0.57
2022-12-03T20:28:48.727Z,0.59
2022-12-03T20:31:18.231Z,0.62
2022-12-03T20:33:48.043Z,0.68
2022-12-03T20:36:16.661Z,0.69
2022-12-03T20:38:43.803Z,0.70
2022-12-03T20:41:13.117Z,0.68
2022-12-03T20:43:39.629Z,0.67
2022-12-03T20:46:11.060Z,0.68
2022-12-03T20:48:37.658Z,0.68
2022-12-03T20:51:09.240Z,0.67
2022-12-03T20:53:36.027Z,0.60
2022-12-03T20:56:04.024Z,0.66
2022-12-03T20:58:31.863Z,0.66
2022-12-03T21:01:15.666Z,0.66
2022-12-03T21:03:43.031Z,0.60
2022-12-03T21:06:10.243Z,0.67
2022-12-03T21:08:41.419Z,0.66
2022-12-03T21:11:14.243Z,0.64
2022-12-03T21:13:44.239Z,0.65
2022-12-03T21:16:16.766Z,0.60
2022-12-03T21:18:43.648Z,0.60
2022-12-03T21:21:14.630Z,0.59
2022-12-03T21:23:41.691Z,0.56
2022-12-03T21:26:14.193Z,0.52
2022-12-03T21:28:43.107Z,0.41
2022-12-03T21:31:13.519Z,0.50
2022-12-03T21:33:40.523Z,0.47
2022-12-03T21:36:07.446Z,0.46
2022-12-03T21:38:34.982Z,0.48
2022-12-03T21:41:02.266Z,0.46
2022-12-03T21:43:29.344Z,0.49
2022-12-03T21:45:56.481Z,0.48
2022-12-03T21:48:22.973Z,0.49
2022-12-03T21:51:03.588Z,0.51
2022-12-03T21:53:32.095Z,0.52
2022-12-03T21:55:59.362Z,0.53
2022-12-03T21:58:26.082Z,0.57
2022-12-03T22:00:52.544Z,0.60
2022-12-03T22:03:18.927Z,0.62
2022-12-03T22:05:45.395Z,0.65
2022-12-03T22:08:13.706Z,0.65
2022-12-03T22:10:40.396Z,0.67
2022-12-03T22:13:06.834Z,0.68
2022-12-03T22:15:33.418Z,0.63
2022-12-03T22:17:59.897Z,0.65
2022-12-03T22:20:26.747Z,0.63
2022-12-03T22:22:53.164Z,0.55
2022-12-03T22:25:19.570Z,0.59
2022-12-03T22:27:46.002Z,0.57
2022-12-03T22:30:12.664Z,0.59
2022-12-03T22:32:39.169Z,0.59
2022-12-03T22:35:06.128Z,0.56
2022-12-03T22:37:32.858Z,0.55
2022-12-03T22:39:59.296Z,0.52
2022-12-03T22:42:25.693Z,0.51
2022-12-03T22:44:52.111Z,0.53
2022-12-03T22:47:18.571Z,0.47
2022-12-03T22:49:44.947Z,0.49
2022-12-03T22:52:11.316Z,0.49
2022-12-03T22:54:37.710Z,0.47
2022-12-03T22:57:04.184Z,0.46
2022-12-03T22:59:30.690Z,0.49
2022-12-03T23:01:57.122Z,0.52
2022-12-03T23:04:23.538Z,0.51
2022-12-03T23:06:50.000Z,0.50
2022-12-03T23:09:16.411Z,0.47
2022-12-03T23:11:45.247Z,0.50
2022-12-03T23:14:12.285Z,0.52
2022-12-03T23:16:40.052Z,0.56
2022-12-03T23:19:06.544Z,0.58
2022-12-03T23:21:34.708Z,0.57
2022-12-03T23:24:03.354Z,0.55
2022-12-03T23:26:30.223Z,0.54
2022-12-03T23:28:56.738Z,0.53
2022-12-03T23:31:26.319Z,0.51
2022-12-03T23:33:53.941Z,0.51
2022-12-03T23:36:21.823Z,0.47
2022-12-03T23:38:48.367Z,0.49
2022-12-03T23:41:17.644Z,0.48
2022-12-03T23:43:44.099Z,0.50
2022-12-03T23:46:12.989Z,0.50
2022-12-03T23:48:39.668Z,0.51
2022-12-03T23:51:08.106Z,0.53
2022-12-03T23:53:35.509Z,0.49
2022-12-03T23:56:06.309Z,0.48
2022-12-03T23:58:33.812Z,0.50
